sensor_id;sensor_type;location;lat;lon;timestamp;pressure;altitude;pressure_sealevel;temperature;humidity
70902;BME280;58548;47.210;8.618;2024-01-11T00:02:12;94662.66;;;10.13;36.95
70902;BME280;58548;47.210;8.618;2024-01-11T00:04:40;94573.22;;;9.64;36.70
70902;BME280;58548;47.210;8.618;2024-01-11T00:07:06;94571.06;;;9.68;36.66
70902;BME280;58548;47.210;8.618;2024-01-11T00:09:31;94569.34;;;9.60;36.17
70902;BME280;58548;47.210;8.618;2024-01-11T00:12:00;94559.44;;;9.47;36.68
70902;BME280;58548;47.210;8.618;2024-01-11T00:14:28;94573.97;;;9.49;37.00
70902;BME280;58548;47.210;8.618;2024-01-11T00:16:54;94586.16;;;9.57;36.61
70902;BME280;58548;47.210;8.618;2024-01-11T00:19:22;94631.81;;;9.85;37.05
70902;BME280;58548;47.210;8.618;2024-01-11T00:21:48;94555.75;;;9.41;36.81
70902;BME280;58548;47.210;8.618;2024-01-11T00:24:14;94646.06;;;9.97;36.81
70902;BME280;58548;47.210;8.618;2024-01-11T00:26:44;94567.72;;;9.59;36.68
70902;BME280;58548;47.210;8.618;2024-01-11T00:29:15;94659.06;;;10.14;36.32
70902;BME280;58548;47.210;8.618;2024-01-11T00:31:43;94649.47;;;10.06;37.00
70902;BME280;58548;47.210;8.618;2024-01-11T00:34:09;94663.94;;;10.17;36.60
70902;BME280;58548;47.210;8.618;2024-01-11T00:36:35;94595.31;;;9.76;36.96
70902;BME280;58548;47.210;8.618;2024-01-11T00:39:02;94661.31;;;10.17;36.50
70902;BME280;58548;47.210;8.618;2024-01-11T00:41:28;94640.50;;;10.00;36.74
70902;BME280;58548;47.210;8.618;2024-01-11T00:43:54;94645.59;;;10.02;36.51
70902;BME280;58548;47.210;8.618;2024-01-11T00:46:19;94673.09;;;10.13;36.76
70902;BME280;58548;47.210;8.618;2024-01-11T00:48:45;94667.88;;;10.13;36.51
70902;BME280;58548;47.210;8.618;2024-01-11T00:51:11;94660.72;;;10.06;36.16
70902;BME280;58548;47.210;8.618;2024-01-11T00:53:37;94583.34;;;9.59;36.19
70902;BME280;58548;47.210;8.618;2024-01-11T00:56:03;94649.06;;;9.94;36.27
70902;BME280;58548;47.210;8.618;2024-01-11T00:58:29;94641.56;;;9.91;36.68
70902;BME280;58548;47.210;8.618;2024-01-11T01:00:57;94575.22;;;9.54;36.10
70902;BME280;58548;47.210;8.618;2024-01-11T01:03:25;94651.00;;;9.92;36.12
70902;BME280;58548;47.210;8.618;2024-01-11T01:05:53;94673.75;;;10.06;36.83
70902;BME280;58548;47.210;8.618;2024-01-11T01:08:19;94637.03;;;9.85;36.09
70902;BME280;58548;47.210;8.618;2024-01-11T01:10:45;94671.78;;;10.08;35.85
70902;BME280;58548;47.210;8.618;2024-01-11T01:13:14;94594.13;;;9.56;36.05
70902;BME280;58548;47.210;8.618;2024-01-11T01:15:44;94670.81;;;10.09;35.94
70902;BME280;58548;47.210;8.618;2024-01-11T01:18:10;94674.22;;;10.10;36.64
70902;BME280;58548;47.210;8.618;2024-01-11T01:20:38;94657.97;;;10.00;36.37
70902;BME280;58548;47.210;8.618;2024-01-11T01:23:08;94603.19;;;9.68;36.52
70902;BME280;58548;47.210;8.618;2024-01-11T01:25:37;94584.38;;;9.49;36.40
70902;BME280;58548;47.210;8.618;2024-01-11T01:28:03;94689.06;;;10.09;36.39
70902;BME280;58548;47.210;8.618;2024-01-11T01:30:31;94602.91;;;9.55;36.28
70902;BME280;58548;47.210;8.618;2024-01-11T01:32:59;94608.75;;;9.65;36.73
70902;BME280;58548;47.210;8.618;2024-01-11T01:35:27;94688.75;;;10.13;36.18
70902;BME280;58548;47.210;8.618;2024-01-11T01:37:53;94695.88;;;10.19;36.40
70902;BME280;58548;47.210;8.618;2024-01-11T01:40:19;94612.34;;;9.64;36.44
70902;BME280;58548;47.210;8.618;2024-01-11T01:42:45;94604.22;;;9.59;35.80
70902;BME280;58548;47.210;8.618;2024-01-11T01:45:12;94673.63;;;10.00;36.28
70902;BME280;58548;47.210;8.618;2024-01-11T01:47:42;94616.28;;;9.60;36.09
70902;BME280;58548;47.210;8.618;2024-01-11T01:50:10;94709.91;;;10.18;36.04
70902;BME280;58548;47.210;8.618;2024-01-11T01:52:39;94700.81;;;10.14;35.65
70902;BME280;58548;47.210;8.618;2024-01-11T01:55:10;94623.13;;;9.61;36.02
70902;BME280;58548;47.210;8.618;2024-01-11T01:57:37;94715.13;;;10.18;35.83
70902;BME280;58548;47.210;8.618;2024-01-11T02:00:08;94632.91;;;9.59;36.24
70902;BME280;58548;47.210;8.618;2024-01-11T02:02:40;94714.84;;;10.13;36.47
70902;BME280;58548;47.210;8.618;2024-01-11T02:05:12;94699.72;;;10.00;36.21
70902;BME280;58548;47.210;8.618;2024-01-11T02:07:40;94705.06;;;10.06;36.43
70902;BME280;58548;47.210;8.618;2024-01-11T02:10:07;94718.91;;;10.15;36.57
70902;BME280;58548;47.210;8.618;2024-01-11T02:12:38;94721.69;;;10.14;35.82
70902;BME280;58548;47.210;8.618;2024-01-11T02:15:05;94626.09;;;9.49;35.90
70902;BME280;58548;47.210;8.618;2024-01-11T02:17:32;94696.00;;;9.94;35.99
70902;BME280;58548;47.210;8.618;2024-01-11T02:19:59;94655.19;;;9.70;36.40
70902;BME280;58548;47.210;8.618;2024-01-11T02:22:36;94719.56;;;10.09;35.78
70902;BME280;58548;47.210;8.618;2024-01-11T02:25:06;94724.97;;;10.07;36.23
70902;BME280;58548;47.210;8.618;2024-01-11T02:27:47;94598.16;;;9.27;35.72
70902;BME280;58548;47.210;8.618;2024-01-11T02:30:17;94723.03;;;10.01;36.54
70902;BME280;58548;47.210;8.618;2024-01-11T02:32:48;94696.38;;;9.83;36.09
70902;BME280;58548;47.210;8.618;2024-01-11T02:35:18;94730.22;;;9.99;35.69
70902;BME280;58548;47.210;8.618;2024-01-11T02:37:45;94727.78;;;9.98;35.92
70902;BME280;58548;47.210;8.618;2024-01-11T02:40:14;94706.16;;;9.80;36.11
70902;BME280;58548;47.210;8.618;2024-01-11T02:42:40;94722.44;;;9.91;35.74
70902;BME280;58548;47.210;8.618;2024-01-11T02:45:07;94720.47;;;9.93;35.73
70902;BME280;58548;47.210;8.618;2024-01-11T02:47:37;94725.50;;;9.94;36.36
70902;BME280;58548;47.210;8.618;2024-01-11T02:50:03;94725.50;;;9.94;35.96
70902;BME280;58548;47.210;8.618;2024-01-11T02:52:28;94719.50;;;9.94;36.10
70902;BME280;58548;47.210;8.618;2024-01-11T02:54:57;94721.75;;;9.97;35.92
70902;BME280;58548;47.210;8.618;2024-01-11T02:57:23;94717.50;;;9.96;36.52
70902;BME280;58548;47.210;8.618;2024-01-11T02:59:49;94631.53;;;9.40;36.10
70902;BME280;58548;47.210;8.618;2024-01-11T03:02:15;94659.34;;;9.47;36.16
70902;BME280;58548;47.210;8.618;2024-01-11T03:04:41;94715.41;;;9.91;35.78
70902;BME280;58548;47.210;8.618;2024-01-11T03:07:07;94718.34;;;9.96;36.65
70902;BME280;58548;47.210;8.618;2024-01-11T03:09:33;94645.66;;;9.45;35.59
70902;BME280;58548;47.210;8.618;2024-01-11T03:12:00;94721.47;;;9.92;36.39
70902;BME280;58548;47.210;8.618;2024-01-11T03:14:30;94712.66;;;9.93;36.41
70902;BME280;58548;47.210;8.618;2024-01-11T03:16:56;94630.69;;;9.39;35.93
70902;BME280;58548;47.210;8.618;2024-01-11T03:19:24;94708.91;;;9.87;36.23
70902;BME280;58548;47.210;8.618;2024-01-11T03:21:53;94642.09;;;9.46;36.06
70902;BME280;58548;47.210;8.618;2024-01-11T03:24:21;94654.06;;;9.64;35.96
70902;BME280;58548;47.210;8.618;2024-01-11T03:26:49;94615.06;;;9.39;36.19
70902;BME280;58548;47.210;8.618;2024-01-11T03:29:17;94695.19;;;9.93;36.34
70902;BME280;58548;47.210;8.618;2024-01-11T03:31:45;94619.94;;;9.42;35.87
70902;BME280;58548;47.210;8.618;2024-01-11T03:34:11;94679.44;;;9.78;35.98
70902;BME280;58548;47.210;8.618;2024-01-11T03:36:39;94625.59;;;9.46;36.28
70902;BME280;58548;47.210;8.618;2024-01-11T03:39:05;94621.56;;;9.43;36.28
70902;BME280;58548;47.210;8.618;2024-01-11T03:41:34;94599.78;;;9.28;36.38
70902;BME280;58548;47.210;8.618;2024-01-11T03:44:00;94691.13;;;9.91;35.83
70902;BME280;58548;47.210;8.618;2024-01-11T03:46:28;94616.88;;;9.39;36.07
70902;BME280;58548;47.210;8.618;2024-01-11T03:48:54;94589.38;;;9.19;35.73
70902;BME280;58548;47.210;8.618;2024-01-11T03:51:21;94696.72;;;9.79;36.37
70902;BME280;58548;47.210;8.618;2024-01-11T03:53:47;94624.19;;;9.35;36.14
70902;BME280;58548;47.210;8.618;2024-01-11T03:56:13;94697.69;;;9.78;36.06
70902;BME280;58548;47.210;8.618;2024-01-11T03:58:41;94611.53;;;9.24;35.81
70902;BME280;58548;47.210;8.618;2024-01-11T04:01:12;94687.59;;;9.75;36.48
70902;BME280;58548;47.210;8.618;2024-01-11T04:03:38;94608.41;;;9.28;36.74
70902;BME280;58548;47.210;8.618;2024-01-11T04:06:06;94687.25;;;9.78;36.33
70902;BME280;58548;47.210;8.618;2024-01-11T04:08:32;94655.38;;;9.60;36.50
70902;BME280;58548;47.210;8.618;2024-01-11T04:11:01;94672.13;;;9.74;36.42
70902;BME280;58548;47.210;8.618;2024-01-11T04:13:31;94688.84;;;9.88;36.00
70902;BME280;58548;47.210;8.618;2024-01-11T04:15:57;94623.19;;;9.44;36.03
70902;BME280;58548;47.210;8.618;2024-01-11T04:18:25;94687.19;;;9.95;36.52
70902;BME280;58548;47.210;8.618;2024-01-11T04:20:56;94610.78;;;9.46;36.05
70902;BME280;58548;47.210;8.618;2024-01-11T04:23:22;94694.72;;;9.90;36.09
70902;BME280;58548;47.210;8.618;2024-01-11T04:25:50;94689.50;;;9.90;36.21
70902;BME280;58548;47.210;8.618;2024-01-11T04:28:19;94685.91;;;9.91;36.25
70902;BME280;58548;47.210;8.618;2024-01-11T04:30:47;94660.72;;;9.75;36.38
70902;BME280;58548;47.210;8.618;2024-01-11T04:33:13;94594.19;;;9.39;36.33
70902;BME280;58548;47.210;8.618;2024-01-11T04:35:38;94673.84;;;9.90;36.17
70902;BME280;58548;47.210;8.618;2024-01-11T04:38:04;94672.69;;;9.92;36.65
70902;BME280;58548;47.210;8.618;2024-01-11T04:40:31;94660.50;;;9.85;35.92
70902;BME280;58548;47.210;8.618;2024-01-11T04:42:56;94678.72;;;9.93;36.55
70902;BME280;58548;47.210;8.618;2024-01-11T04:45:22;94673.50;;;9.93;36.14
70902;BME280;58548;47.210;8.618;2024-01-11T04:47:50;94594.19;;;9.39;36.23
70902;BME280;58548;47.210;8.618;2024-01-11T04:50:16;94657.25;;;9.83;36.37
70902;BME280;58548;47.210;8.618;2024-01-11T04:52:44;94629.16;;;9.61;35.78
70902;BME280;58548;47.210;8.618;2024-01-11T04:55:10;94651.56;;;9.79;36.55
70902;BME280;58548;47.210;8.618;2024-01-11T04:57:36;94603.63;;;9.48;36.62
70902;BME280;58548;47.210;8.618;2024-01-11T05:00:04;94690.09;;;10.00;36.52
70902;BME280;58548;47.210;8.618;2024-01-11T05:02:33;94682.44;;;9.99;36.29
70902;BME280;58548;47.210;8.618;2024-01-11T05:05:01;94613.34;;;9.55;36.44
70902;BME280;58548;47.210;8.618;2024-01-11T05:07:33;94666.66;;;9.92;36.41
70902;BME280;58548;47.210;8.618;2024-01-11T05:10:00;94675.94;;;9.94;35.72
70902;BME280;58548;47.210;8.618;2024-01-11T05:12:26;94649.09;;;9.77;35.99
70902;BME280;58548;47.210;8.618;2024-01-11T05:14:52;94675.47;;;9.91;35.82
70902;BME280;58548;47.210;8.618;2024-01-11T05:17:18;94678.09;;;9.91;36.15
70902;BME280;58548;47.210;8.618;2024-01-11T05:19:46;94678.72;;;9.93;35.94
70902;BME280;58548;47.210;8.618;2024-01-11T05:22:14;94596.66;;;9.41;36.29
70902;BME280;58548;47.210;8.618;2024-01-11T05:24:43;94675.47;;;9.91;36.33
70902;BME280;58548;47.210;8.618;2024-01-11T05:27:11;94609.63;;;9.49;36.36
70902;BME280;58548;47.210;8.618;2024-01-11T05:29:37;94608.50;;;9.52;35.92
70902;BME280;58548;47.210;8.618;2024-01-11T05:32:05;94625.38;;;9.64;35.51
70902;BME280;58548;47.210;8.618;2024-01-11T05:34:31;94676.94;;;9.85;35.75
70902;BME280;58548;47.210;8.618;2024-01-11T05:37:00;94601.38;;;9.37;35.50
70902;BME280;58548;47.210;8.618;2024-01-11T05:39:27;94604.16;;;9.35;36.34
70902;BME280;58548;47.210;8.618;2024-01-11T05:41:55;94600.06;;;9.33;35.72
70902;BME280;58548;47.210;8.618;2024-01-11T05:44:21;94679.44;;;9.78;35.68
70902;BME280;58548;47.210;8.618;2024-01-11T05:46:52;94656.50;;;9.65;35.60
70902;BME280;58548;47.210;8.618;2024-01-11T05:49:17;94595.38;;;9.28;35.35
70902;BME280;58548;47.210;8.618;2024-01-11T05:51:45;94594.25;;;9.31;36.11
70902;BME280;58548;47.210;8.618;2024-01-11T05:54:11;94651.78;;;9.69;35.77
70902;BME280;58548;47.210;8.618;2024-01-11T05:56:37;94608.53;;;9.43;35.87
70902;BME280;58548;47.210;8.618;2024-01-11T05:59:06;94583.84;;;9.23;35.68
70902;BME280;58548;47.210;8.618;2024-01-11T06:01:32;94675.19;;;9.77;35.94
70902;BME280;58548;47.210;8.618;2024-01-11T06:03:58;94678.44;;;9.79;36.31
70902;BME280;58548;47.210;8.618;2024-01-11T06:06:26;94683.00;;;9.86;35.71
70902;BME280;58548;47.210;8.618;2024-01-11T06:08:54;94596.84;;;9.31;36.43
70902;BME280;58548;47.210;8.618;2024-01-11T06:11:20;94679.09;;;9.81;36.01
70902;BME280;58548;47.210;8.618;2024-01-11T06:13:46;94590.66;;;9.32;35.90
70902;BME280;58548;47.210;8.618;2024-01-11T06:16:15;94584.81;;;9.30;36.03
70902;BME280;58548;47.210;8.618;2024-01-11T06:18:41;94677.44;;;9.89;35.76
70902;BME280;58548;47.210;8.618;2024-01-11T06:21:06;94586.28;;;9.24;36.09
70902;BME280;58548;47.210;8.618;2024-01-11T06:23:32;94687.88;;;9.89;35.72
70902;BME280;58548;47.210;8.618;2024-01-11T06:25:58;94676.94;;;9.85;35.94
70902;BME280;58548;47.210;8.618;2024-01-11T06:28:24;94686.59;;;9.85;36.48
70902;BME280;58548;47.210;8.618;2024-01-11T06:30:53;94687.38;;;9.85;36.41
70902;BME280;58548;47.210;8.618;2024-01-11T06:33:19;94626.44;;;9.46;36.24
70902;BME280;58548;47.210;8.618;2024-01-11T06:35:46;94671.94;;;9.75;36.07
70902;BME280;58548;47.210;8.618;2024-01-11T06:38:11;94688.22;;;9.86;36.07
70902;BME280;58548;47.210;8.618;2024-01-11T06:40:39;94686.91;;;9.81;36.46
70902;BME280;58548;47.210;8.618;2024-01-11T06:43:08;94695.22;;;9.85;36.54
70902;BME280;58548;47.210;8.618;2024-01-11T06:45:34;94673.28;;;9.71;36.35
70902;BME280;58548;47.210;8.618;2024-01-11T06:48:00;94638.19;;;9.42;36.12
70902;BME280;58548;47.210;8.618;2024-01-11T06:50:26;94616.22;;;9.28;35.96
70902;BME280;58548;47.210;8.618;2024-01-11T06:52:57;94699.50;;;9.78;36.04
70902;BME280;58548;47.210;8.618;2024-01-11T06:55:25;94605.69;;;9.13;36.40
70902;BME280;58548;47.210;8.618;2024-01-11T06:57:51;94623.25;;;9.28;36.27
70902;BME280;58548;47.210;8.618;2024-01-11T07:00:17;94708.09;;;9.87;36.35
70902;BME280;58548;47.210;8.618;2024-01-11T07:02:45;94611.41;;;9.17;36.20
70902;BME280;58548;47.210;8.618;2024-01-11T07:05:11;94657.72;;;9.46;36.40
70902;BME280;58548;47.210;8.618;2024-01-11T07:07:40;94720.69;;;9.83;35.90
70902;BME280;58548;47.210;8.618;2024-01-11T07:10:08;94715.31;;;9.76;36.30
70902;BME280;58548;47.210;8.618;2024-01-11T07:12:35;94709.81;;;9.63;35.91
70902;BME280;58548;47.210;8.618;2024-01-11T07:15:01;94725.13;;;9.74;36.51
70902;BME280;58548;47.210;8.618;2024-01-11T07:17:27;94630.94;;;9.04;36.38
70902;BME280;58548;47.210;8.618;2024-01-11T07:19:52;94630.81;;;8.98;36.72
70902;BME280;58548;47.210;8.618;2024-01-11T07:22:18;94651.31;;;9.09;36.12
70902;BME280;58548;47.210;8.618;2024-01-11T07:24:44;94646.06;;;9.17;36.19
70902;BME280;58548;47.210;8.618;2024-01-11T07:27:12;94745.66;;;9.69;35.95
70902;BME280;58548;47.210;8.618;2024-01-11T07:29:40;94744.38;;;9.65;36.63
70902;BME280;58548;47.210;8.618;2024-01-11T07:32:08;94746.97;;;9.65;36.43
70902;BME280;58548;47.210;8.618;2024-01-11T07:34:37;94669.38;;;9.11;36.55
70902;BME280;58548;47.210;8.618;2024-01-11T07:37:03;94696.22;;;9.28;36.67
70902;BME280;58548;47.210;8.618;2024-01-11T07:39:29;94718.66;;;9.45;36.85
70902;BME280;58548;47.210;8.618;2024-01-11T07:41:56;94670.69;;;9.15;37.06
70902;BME280;58548;47.210;8.618;2024-01-11T07:44:24;94672.78;;;9.19;36.79
70902;BME280;58548;47.210;8.618;2024-01-11T07:46:53;94730.69;;;9.63;36.79
70902;BME280;58548;47.210;8.618;2024-01-11T07:49:18;94666.59;;;9.20;36.05
70902;BME280;58548;47.210;8.618;2024-01-11T07:51:47;94756.75;;;9.71;36.16
70902;BME280;58548;47.210;8.618;2024-01-11T07:54:13;94753.81;;;9.74;36.23
70902;BME280;58548;47.210;8.618;2024-01-11T07:56:39;94756.41;;;9.74;36.32
70902;BME280;58548;47.210;8.618;2024-01-11T07:59:06;94709.72;;;9.40;36.07
70902;BME280;58548;47.210;8.618;2024-01-11T08:01:32;94760.00;;;9.73;36.08
70902;BME280;58548;47.210;8.618;2024-01-11T08:04:01;94760.97;;;9.72;36.60
70902;BME280;58548;47.210;8.618;2024-01-11T08:06:28;94746.66;;;9.68;36.63
70902;BME280;58548;47.210;8.618;2024-01-11T08:08:54;94660.72;;;9.18;36.86
70902;BME280;58548;47.210;8.618;2024-01-11T08:11:22;94663.78;;;9.30;36.38
70902;BME280;58548;47.210;8.618;2024-01-11T08:13:48;94682.50;;;9.42;36.06
70902;BME280;58548;47.210;8.618;2024-01-11T08:16:19;94749.53;;;9.81;36.36
70902;BME280;58548;47.210;8.618;2024-01-11T08:18:47;94711.13;;;9.59;35.85
70902;BME280;58548;47.210;8.618;2024-01-11T08:21:14;94761.91;;;9.88;36.23
70902;BME280;58548;47.210;8.618;2024-01-11T08:23:41;94709.50;;;9.58;36.04
70902;BME280;58548;47.210;8.618;2024-01-11T08:26:14;94701.88;;;9.48;36.45
70902;BME280;58548;47.210;8.618;2024-01-11T08:28:41;94731.00;;;9.68;35.98
70902;BME280;58548;47.210;8.618;2024-01-11T08:31:07;94762.56;;;9.90;36.47
70902;BME280;58548;47.210;8.618;2024-01-11T08:33:34;94771.69;;;9.94;35.71
70902;BME280;58548;47.210;8.618;2024-01-11T08:36:06;94788.25;;;10.09;35.69
70902;BME280;58548;47.210;8.618;2024-01-11T08:38:32;94701.34;;;9.61;35.78
70902;BME280;58548;47.210;8.618;2024-01-11T08:41:03;94713.06;;;9.65;36.38
70902;BME280;58548;47.210;8.618;2024-01-11T08:43:34;94794.91;;;10.20;36.06
70902;BME280;58548;47.210;8.618;2024-01-11T08:46:04;94724.09;;;9.75;36.01
70902;BME280;58548;47.210;8.618;2024-01-11T08:48:30;94792.44;;;10.19;35.39
70902;BME280;58548;47.210;8.618;2024-01-11T08:51:01;94709.78;;;9.71;35.52
70902;BME280;58548;47.210;8.618;2024-01-11T08:53:29;94794.03;;;10.28;35.41
70902;BME280;58548;47.210;8.618;2024-01-11T08:55:55;94712.56;;;9.70;34.95
70902;BME280;58548;47.210;8.618;2024-01-11T08:58:21;94780.41;;;10.09;35.67
70902;BME280;58548;47.210;8.618;2024-01-11T09:00:46;94796.03;;;10.18;36.06
70902;BME280;58548;47.210;8.618;2024-01-11T09:03:12;94796.34;;;10.23;35.26
70902;BME280;58548;47.210;8.618;2024-01-11T09:05:39;94760.84;;;10.05;35.28
70902;BME280;58548;47.210;8.618;2024-01-11T09:08:05;94774.34;;;10.17;35.58
70902;BME280;58548;47.210;8.618;2024-01-11T09:10:33;94707.66;;;9.75;35.84
70902;BME280;58548;47.210;8.618;2024-01-11T09:12:59;94771.56;;;10.19;35.63
70902;BME280;58548;47.210;8.618;2024-01-11T09:15:25;94697.22;;;9.75;35.41
70902;BME280;58548;47.210;8.618;2024-01-11T09:17:51;94786.53;;;10.33;35.74
70902;BME280;58548;47.210;8.618;2024-01-11T09:20:17;94740.09;;;10.12;35.05
70902;BME280;58548;47.210;8.618;2024-01-11T09:22:44;94789.94;;;10.42;35.47
70902;BME280;58548;47.210;8.618;2024-01-11T09:25:15;94703.19;;;9.92;35.25
70902;BME280;58548;47.210;8.618;2024-01-11T09:27:43;94800.50;;;10.49;34.91
70902;BME280;58548;47.210;8.618;2024-01-11T09:30:12;94725.97;;;9.98;35.14
70902;BME280;58548;47.210;8.618;2024-01-11T09:32:41;94808.16;;;10.50;34.84
70902;BME280;58548;47.210;8.618;2024-01-11T09:35:10;94815.19;;;10.50;35.44
70902;BME280;58548;47.210;8.618;2024-01-11T09:37:36;94738.03;;;10.07;35.47
70902;BME280;58548;47.210;8.618;2024-01-11T09:40:05;94818.13;;;10.55;35.31
70902;BME280;58548;47.210;8.618;2024-01-11T09:42:40;94773.28;;;10.35;35.30
70902;BME280;58548;47.210;8.618;2024-01-11T09:45:17;94808.13;;;10.59;34.76
70902;BME280;58548;47.210;8.618;2024-01-11T09:47:45;94781.47;;;10.40;34.90
70902;BME280;58548;47.210;8.618;2024-01-11T09:50:13;94814.19;;;10.59;34.80
70902;BME280;58548;47.210;8.618;2024-01-11T09:52:52;94824.56;;;10.67;35.07
70902;BME280;58548;47.210;8.618;2024-01-11T09:55:19;94742.56;;;10.14;35.03
70902;BME280;58548;47.210;8.618;2024-01-11T09:57:47;94739.63;;;10.17;34.83
70902;BME280;58548;47.210;8.618;2024-01-11T10:00:17;94786.00;;;10.46;34.67
70902;BME280;58548;47.210;8.618;2024-01-11T10:02:46;94780.59;;;10.48;34.95
70902;BME280;58548;47.210;8.618;2024-01-11T10:05:13;94730.28;;;10.22;34.47
70902;BME280;58548;47.210;8.618;2024-01-11T10:07:44;94812.59;;;10.73;34.90
70902;BME280;58548;47.210;8.618;2024-01-11T10:10:13;94748.69;;;10.29;34.27
70902;BME280;58548;47.210;8.618;2024-01-11T10:12:45;94703.44;;;10.05;34.58
70902;BME280;58548;47.210;8.618;2024-01-11T10:15:11;94725.88;;;10.23;34.40
70902;BME280;58548;47.210;8.618;2024-01-11T10:17:44;94806.19;;;10.84;34.74
70902;BME280;58548;47.210;8.618;2024-01-11T10:20:13;94722.19;;;10.40;34.42
70902;BME280;58548;47.210;8.618;2024-01-11T10:22:43;94779.13;;;10.77;33.79
70902;BME280;58548;47.210;8.618;2024-01-11T10:25:14;94792.97;;;10.85;34.17
70902;BME280;58548;47.210;8.618;2024-01-11T10:27:42;94785.41;;;10.91;34.60
70902;BME280;58548;47.210;8.618;2024-01-11T10:30:10;94688.75;;;10.36;34.33
70902;BME280;58548;47.210;8.618;2024-01-11T10:32:37;94783.91;;;10.96;34.58
70902;BME280;58548;47.210;8.618;2024-01-11T10:35:04;94716.28;;;10.47;34.04
70902;BME280;58548;47.210;8.618;2024-01-11T10:37:32;94795.97;;;10.97;33.81
70902;BME280;58548;47.210;8.618;2024-01-11T10:40:05;94800.88;;;11.00;34.00
70902;BME280;58548;47.210;8.618;2024-01-11T10:42:43;94785.56;;;10.89;34.02
70902;BME280;58548;47.210;8.618;2024-01-11T10:45:20;94710.44;;;10.45;34.34
70902;BME280;58548;47.210;8.618;2024-01-11T10:50:16;94699.47;;;10.49;33.49
70902;BME280;58548;47.210;8.618;2024-01-11T10:55:39;94801.44;;;11.11;33.88
70902;BME280;58548;47.210;8.618;2024-01-11T10:58:07;94799.16;;;11.08;33.92
70902;BME280;58548;47.210;8.618;2024-01-11T11:00:36;94746.50;;;10.73;33.27
70902;BME280;58548;47.210;8.618;2024-01-11T11:03:07;94719.78;;;10.62;33.92
70902;BME280;58548;47.210;8.618;2024-01-11T11:05:34;94803.06;;;11.12;34.04
70902;BME280;58548;47.210;8.618;2024-01-11T11:08:04;94710.38;;;10.53;33.73
70902;BME280;58548;47.210;8.618;2024-01-11T11:10:34;94721.13;;;10.58;33.53
70902;BME280;58548;47.210;8.618;2024-01-11T11:13:00;94709.34;;;10.62;33.40
70902;BME280;58548;47.210;8.618;2024-01-11T11:15:29;94731.81;;;10.71;33.70
70902;BME280;58548;47.210;8.618;2024-01-11T11:17:56;94717.81;;;10.64;33.33
70902;BME280;58548;47.210;8.618;2024-01-11T11:20:22;94710.28;;;10.69;33.69
70902;BME280;58548;47.210;8.618;2024-01-11T11:23:07;94808.34;;;11.27;33.39
70902;BME280;58548;47.210;8.618;2024-01-11T11:25:35;94799.66;;;11.26;33.74
70902;BME280;58548;47.210;8.618;2024-01-11T11:28:01;94790.03;;;11.27;33.87
70902;BME280;58548;47.210;8.618;2024-01-11T11:30:36;94787.22;;;11.28;33.67
70902;BME280;58548;47.210;8.618;2024-01-11T11:33:21;94792.34;;;11.22;33.59
70902;BME280;58548;47.210;8.618;2024-01-11T11:35:53;94789.41;;;11.25;33.12
70902;BME280;58548;47.210;8.618;2024-01-11T11:38:23;94698.50;;;10.74;33.09
70902;BME280;58548;47.210;8.618;2024-01-11T11:40:58;94709.03;;;10.80;33.87
70902;BME280;58548;47.210;8.618;2024-01-11T11:43:26;94719.59;;;10.87;33.36
70902;BME280;58548;47.210;8.618;2024-01-11T11:45:53;94697.81;;;10.80;33.04
70902;BME280;58548;47.210;8.618;2024-01-11T11:51:15;94768.88;;;11.37;32.92
70902;BME280;58548;47.210;8.618;2024-01-11T11:53:45;94737.25;;;11.23;33.51
70902;BME280;58548;47.210;8.618;2024-01-11T11:56:12;94678.88;;;10.93;33.13
70902;BME280;58548;47.210;8.618;2024-01-11T11:58:40;94730.63;;;11.36;33.16
70902;BME280;58548;47.210;8.618;2024-01-11T12:01:06;94670.44;;;11.06;33.26
70902;BME280;58548;47.210;8.618;2024-01-11T12:03:40;94669.56;;;11.13;32.98
70902;BME280;58548;47.210;8.618;2024-01-11T12:06:09;94749.34;;;11.63;33.25
70902;BME280;58548;47.210;8.618;2024-01-11T12:08:37;94665.16;;;11.14;32.64
70902;BME280;58548;47.210;8.618;2024-01-11T12:11:08;94757.28;;;11.69;32.50
70902;BME280;58548;47.210;8.618;2024-01-11T12:13:35;94732.25;;;11.67;33.25
70902;BME280;58548;47.210;8.618;2024-01-11T12:16:01;94649.03;;;11.10;33.22
70902;BME280;58548;47.210;8.618;2024-01-11T12:18:27;94740.13;;;11.67;32.50
70902;BME280;58548;47.210;8.618;2024-01-11T12:20:56;94728.31;;;11.71;32.69
70902;BME280;58548;47.210;8.618;2024-01-11T12:23:22;94736.72;;;11.81;32.98
70902;BME280;58548;47.210;8.618;2024-01-11T12:25:49;94711.97;;;11.69;32.62
70902;BME280;58548;47.210;8.618;2024-01-11T12:28:17;94715.94;;;11.80;32.24
70902;BME280;58548;47.210;8.618;2024-01-11T12:30:44;94725.25;;;11.82;32.65
70902;BME280;58548;47.210;8.618;2024-01-11T12:33:10;94737.78;;;11.87;32.04
70902;BME280;58548;47.210;8.618;2024-01-11T12:35:37;94716.28;;;11.76;31.87
70902;BME280;58548;47.210;8.618;2024-01-11T12:38:05;94647.66;;;11.29;32.44
70902;BME280;58548;47.210;8.618;2024-01-11T12:40:41;94732.47;;;11.80;31.84
70902;BME280;58548;47.210;8.618;2024-01-11T12:43:07;94633.88;;;11.21;32.43
70902;BME280;58548;47.210;8.618;2024-01-11T12:45:36;94713.25;;;11.73;32.55
70902;BME280;58548;47.210;8.618;2024-01-11T12:48:08;94646.41;;;11.25;32.48
70902;BME280;58548;47.210;8.618;2024-01-11T12:50:38;94737.41;;;11.75;32.70
70902;BME280;58548;47.210;8.618;2024-01-11T12:55:33;94644.31;;;11.21;32.58
70902;BME280;58548;47.210;8.618;2024-01-11T12:58:10;94737.78;;;11.72;32.18
70902;BME280;58548;47.210;8.618;2024-01-11T13:00:39;94719.66;;;11.55;32.12
70902;BME280;58548;47.210;8.618;2024-01-11T13:03:05;94659.63;;;11.09;32.03
70902;BME280;58548;47.210;8.618;2024-01-11T13:05:31;94741.22;;;11.57;32.46
70902;BME280;58548;47.210;8.618;2024-01-11T13:08:09;94717.72;;;11.34;32.16
70902;BME280;58548;47.210;8.618;2024-01-11T13:10:37;94600.34;;;10.56;32.28
70902;BME280;58548;47.210;8.618;2024-01-11T13:13:04;94731.91;;;11.40;31.86
70902;BME280;58548;47.210;8.618;2024-01-11T13:15:31;94649.41;;;10.84;32.17
70902;BME280;58548;47.210;8.618;2024-01-11T13:17:58;94660.09;;;10.74;32.30
70902;BME280;58548;47.210;8.618;2024-01-11T13:20:28;94660.34;;;10.64;32.40
70902;BME280;58548;47.210;8.618;2024-01-11T13:23:17;94602.88;;;10.18;32.07